Time;durP1;ratioP1;P1;durP2;ratioP2;P2;SDS_P1;SDS_P2;PMS_P1;PMS_P2;Temp;Humidity;BMP_temperature;BMP_pressure;BME280_temperature;BME280_humidity;BME280_pressure;Samples;Min_cycle;Max_cycle;Signal;HPM_P1;HPM_P2
2022/01/31 00:01:39;;;;;;;20.10;6.93;;;;;;;4.59;83.62;101339.69;5053841;28;20017;-63
2022/01/31 00:04:04;;;;;;;22.15;6.20;;;;;;;4.55;85.03;101329.88;5053668;28;20017;-62
2022/01/31 00:06:29;;;;;;;20.92;6.10;;;;;;;4.65;84.68;101315.31;5053608;28;20459;-64
2022/01/31 00:08:54;;;;;;;21.75;6.10;;;;;;;4.57;85.07;101312.59;5035784;28;20440;-63
2022/01/31 00:11:21;;;;;;;29.60;6.40;;;;;;;4.50;85.51;101287.56;5053668;28;20033;-63
2022/01/31 00:13:57;;;;;;;23.25;6.25;;;;;;;4.58;84.98;101268.97;5053483;28;20023;-63
2022/01/31 00:16:25;;;;;;;28.77;6.22;;;;;;;4.60;85.45;101258.59;5053513;28;20441;-63
2022/01/31 00:18:50;;;;;;;24.85;6.43;;;;;;;4.56;85.68;101252.13;5053531;28;20459;-64
2022/01/31 00:21:16;;;;;;;22.15;6.07;;;;;;;4.61;86.08;101249.97;5053307;28;20072;-63
2022/01/31 00:23:42;;;;;;;26.15;5.95;;;;;;;4.61;86.02;101248.22;5053624;28;20059;-62
2022/01/31 00:26:07;;;;;;;27.27;5.53;;;;;;;4.65;86.27;101218.84;5036500;28;20025;-62
2022/01/31 00:28:32;;;;;;;17.90;5.57;;;;;;;4.61;87.22;101203.91;5054139;28;20041;-62
2022/01/31 00:30:58;;;;;;;22.33;5.50;;;;;;;4.62;87.49;101214.00;5053954;28;20060;-62
2022/01/31 00:33:23;;;;;;;18.90;5.35;;;;;;;4.60;87.82;101192.81;5053750;28;20459;-64
2022/01/31 00:35:48;;;;;;;26.95;6.30;;;;;;;4.69;88.00;101188.63;5035939;28;20020;-63
2022/01/31 00:38:13;;;;;;;27.23;6.50;;;;;;;4.52;88.15;101185.84;5036205;28;20032;-62
2022/01/31 00:40:41;;;;;;;18.20;5.32;;;;;;;4.53;88.75;101166.19;5054039;28;20460;-63
2022/01/31 00:43:12;;;;;;;22.25;5.80;;;;;;;4.56;89.33;101158.22;5053993;28;20021;-63
2022/01/31 00:45:44;;;;;;;29.02;6.55;;;;;;;4.53;89.40;101161.88;5054006;28;20468;-63
2022/01/31 00:48:16;;;;;;;21.88;6.18;;;;;;;4.50;89.82;101157.03;5054316;28;20036;-63
2022/01/31 00:50:44;;;;;;;21.30;5.95;;;;;;;4.53;90.41;101151.63;5036002;28;20123;-64
2022/01/31 00:53:09;;;;;;;21.80;5.63;;;;;;;4.53;91.45;101132.91;5035897;28;20112;-63
2022/01/31 00:55:34;;;;;;;19.23;5.75;;;;;;;4.49;91.39;101132.38;5054346;28;20063;-64
2022/01/31 00:58:00;;;;;;;19.65;5.85;;;;;;;4.46;91.48;101114.75;5054012;28;20418;-64
2022/01/31 01:00:25;;;;;;;22.05;6.20;;;;;;;4.51;91.36;101107.44;5035825;28;20076;-64
2022/01/31 01:02:50;;;;;;;14.73;4.53;;;;;;;4.40;92.62;101082.03;5053726;28;20430;-64
2022/01/31 01:05:16;;;;;;;17.15;5.88;;;;;;;4.44;92.82;101083.38;5035810;28;20143;-64
2022/01/31 01:07:45;;;;;;;16.05;5.93;;;;;;;4.39;93.28;101070.16;5035756;28;20372;-64
2022/01/31 01:10:12;;;;;;;14.98;5.35;;;;;;;4.47;92.82;101054.94;5036033;28;20083;-64
2022/01/31 01:12:37;;;;;;;12.23;5.22;;;;;;;4.44;92.36;101046.72;5053465;28;20032;-64
2022/01/31 01:15:03;;;;;;;13.10;5.15;;;;;;;4.43;92.81;101042.53;5053517;28;20061;-63
2022/01/31 01:17:28;;;;;;;17.40;5.40;;;;;;;4.29;92.87;101003.69;5035572;28;20047;-64
2022/01/31 01:19:53;;;;;;;18.13;5.90;;;;;;;4.53;92.53;101008.28;5054201;28;20047;-62
2022/01/31 01:22:18;;;;;;;15.18;5.65;;;;;;;4.55;92.75;100997.94;5053456;28;20071;-65
2022/01/31 01:24:44;;;;;;;16.30;5.25;;;;;;;4.58;93.04;100997.66;5053666;28;20017;-64
2022/01/31 01:27:10;;;;;;;17.05;6.18;;;;;;;4.54;92.52;100988.63;5053401;28;20021;-64
2022/01/31 01:29:36;;;;;;;11.48;5.05;;;;;;;4.53;93.43;100964.78;5035501;28;20025;-65
2022/01/31 01:32:01;;;;;;;11.02;5.70;;;;;;;4.59;92.91;100963.41;5053251;28;20078;-63
2022/01/31 01:34:31;;;;;;;14.50;5.57;;;;;;;4.52;92.88;100949.59;5035436;28;20032;-64
2022/01/31 01:36:56;;;;;;;16.85;6.28;;;;;;;4.52;93.48;100939.34;5053352;28;20063;-65
2022/01/31 01:39:22;;;;;;;14.13;5.57;;;;;;;4.61;93.72;100935.94;5039723;28;20056;-64
2022/01/31 01:41:47;;;;;;;11.50;5.78;;;;;;;4.59;94.34;100921.66;5060173;28;20419;-64
2022/01/31 01:44:13;;;;;;;11.90;5.80;;;;;;;4.57;93.99;100910.75;5059848;28;20113;-63
2022/01/31 01:46:38;;;;;;;16.60;6.32;;;;;;;4.61;94.67;100905.22;5059904;28;20461;-62
2022/01/31 01:49:03;;;;;;;13.63;6.20;;;;;;;4.60;95.37;100901.03;5059733;28;20383;-65
2022/01/31 01:51:30;;;;;;;16.88;6.43;;;;;;;4.65;94.75;100892.91;5059771;28;20037;-63
2022/01/31 01:53:57;;;;;;;13.63;6.18;;;;;;;4.65;95.06;100903.97;5041854;28;20025;-65
2022/01/31 01:56:23;;;;;;;19.52;6.93;;;;;;;4.71;95.05;100907.69;5060002;28;20036;-63
2022/01/31 01:58:49;;;;;;;14.30;6.40;;;;;;;4.71;95.66;100905.94;5060265;28;20024;-64
2022/01/31 02:01:14;;;;;;;14.10;6.43;;;;;;;4.80;95.80;100903.44;5041805;28;20033;-63
2022/01/31 02:03:40;;;;;;;13.23;5.72;;;;;;;4.82;96.12;100901.56;5059850;28;20024;-62
2022/01/31 02:06:07;;;;;;;13.07;5.50;;;;;;;4.94;96.16;100890.13;5059589;28;20078;-65
2022/01/31 02:08:40;;;;;;;14.73;5.13;;;;;;;5.07;95.57;100870.09;5059582;28;20035;-62
2022/01/31 02:11:07;;;;;;;10.43;4.32;;;;;;;5.11;95.81;100865.47;5060341;28;20029;-62
2022/01/31 02:13:34;;;;;;;13.43;4.70;;;;;;;5.16;95.92;100853.00;5059411;28;20021;-62
2022/01/31 02:16:00;;;;;;;15.90;4.82;;;;;;;5.22;96.18;100852.41;5059316;28;20053;-65
2022/01/31 02:18:28;;;;;;;17.00;4.40;;;;;;;5.34;96.19;100835.03;5041575;28;20033;-61
2022/01/31 02:20:53;;;;;;;12.77;3.67;;;;;;;5.42;96.17;100827.41;5059531;28;20040;-63
2022/01/31 02:23:21;;;;;;;19.20;3.97;;;;;;;5.48;95.93;100824.22;5041849;28;20371;-62
2022/01/31 02:26:00;;;;;;;19.45;4.00;;;;;;;5.64;96.26;100828.63;5041554;28;20360;-62
2022/01/31 02:28:27;;;;;;;21.15;4.10;;;;;;;5.72;95.82;100810.69;5041579;28;20063;-62
2022/01/31 02:30:53;;;;;;;25.30;3.80;;;;;;;5.82;95.40;100815.72;5041553;28;20021;-62
2022/01/31 02:33:19;;;;;;;21.67;3.72;;;;;;;5.91;95.00;100830.19;5059298;28;20059;-65
2022/01/31 02:35:52;;;;;;;25.73;3.47;;;;;;;5.96;95.23;100824.63;5059681;28;20056;-62
2022/01/31 02:38:17;;;;;;;17.40;3.72;;;;;;;5.93;94.95;100818.03;5041473;28;20021;-62
2022/01/31 02:40:44;;;;;;;20.70;3.33;;;;;;;6.01;93.45;100800.13;5059375;28;20086;-62
2022/01/31 02:43:10;;;;;;;17.70;3.35;;;;;;;6.05;93.13;100809.09;5041351;28;20021;-61
2022/01/31 02:45:35;;;;;;;17.55;3.45;;;;;;;6.15;91.69;100806.38;5059575;28;20529;-61
2022/01/31 02:48:03;;;;;;;17.73;3.60;;;;;;;6.14;92.08;100799.66;5041320;28;20060;-62
2022/01/31 02:50:28;;;;;;;20.45;3.95;;;;;;;5.96;90.71;100766.44;5056410;28;20103;-62
2022/01/31 02:53:31;;;;;;;19.13;3.25;;;;;;;6.11;91.58;100794.84;5056063;28;20032;-61
2022/01/31 02:55:47;;;;;;;17.45;3.20;;;;;;;6.04;92.08;100799.81;5051957;28;20104;-62
2022/01/31 02:58:13;;;;;;;17.92;3.40;;;;;;;6.13;90.82;100790.34;5056536;28;20036;-61
2022/01/31 03:00:39;;;;;;;12.38;3.05;;;;;;;6.15;91.44;100783.28;5038074;28;20025;-62
2022/01/31 03:03:05;;;;;;;17.10;3.15;;;;;;;6.13;90.48;100790.34;5038072;28;20025;-61
2022/01/31 03:05:31;;;;;;;17.67;3.20;;;;;;;6.13;90.11;100789.53;5055831;28;20366;-62
2022/01/31 03:07:56;;;;;;;15.20;3.00;;;;;;;6.08;90.53;100792.59;5055376;28;20108;-63
2022/01/31 03:10:22;;;;;;;17.50;2.97;;;;;;;6.09;89.89;100784.72;5037823;28;20043;-62
2022/01/31 03:12:47;;;;;;;13.77;2.78;;;;;;;6.14;90.14;100766.28;5055719;28;20021;-62
2022/01/31 03:15:12;;;;;;;23.80;3.28;;;;;;;6.10;90.06;100776.06;5037692;28;20574;-62
2022/01/31 03:17:40;;;;;;;20.00;2.88;;;;;;;6.15;89.36;100767.88;5056248;28;20047;-62
2022/01/31 03:20:06;;;;;;;16.88;3.45;;;;;;;6.18;89.23;100771.91;5055600;28;20024;-62
2022/01/31 03:22:32;;;;;;;17.40;2.88;;;;;;;6.16;89.05;100774.66;5055587;28;20020;-62
2022/01/31 03:24:57;;;;;;;19.15;2.70;;;;;;;5.91;87.30;100717.31;5037655;28;20064;-62
2022/01/31 03:27:23;;;;;;;23.80;3.05;;;;;;;6.27;87.32;100758.13;5055413;28;20108;-62
2022/01/31 03:29:48;;;;;;;12.30;2.70;;;;;;;6.12;87.90;100755.38;5055377;28;20036;-61
2022/01/31 03:32:13;;;;;;;25.02;3.35;;;;;;;6.18;85.76;100741.13;5055257;28;20048;-62
2022/01/31 03:34:38;;;;;;;18.55;2.95;;;;;;;6.19;85.97;100753.81;5037734;28;20509;-62
2022/01/31 03:37:04;;;;;;;21.83;3.17;;;;;;;6.12;87.16;100765.63;5055886;28;20025;-62
2022/01/31 03:39:29;;;;;;;20.08;3.40;;;;;;;6.19;85.58;100756.38;5037337;28;20115;-62
2022/01/31 03:41:54;;;;;;;15.65;3.03;;;;;;;6.16;84.74;100732.75;5055200;28;20036;-61
2022/01/31 03:44:20;;;;;;;21.42;3.22;;;;;;;6.20;84.31;100736.63;5055160;28;20021;-62
2022/01/31 03:46:45;;;;;;;28.58;3.22;;;;;;;6.11;85.95;100728.13;5055633;28;20036;-61
2022/01/31 03:49:10;;;;;;;13.68;2.35;;;;;;;6.14;83.72;100744.97;5054905;28;20107;-62
2022/01/31 03:51:36;;;;;;;20.30;3.83;;;;;;;6.18;84.74;100728.28;5037035;28;20051;-62
2022/01/31 03:54:03;;;;;;;20.80;3.60;;;;;;;6.16;84.01;100732.75;5054841;28;20028;-61
2022/01/31 03:56:28;;;;;;;14.20;2.38;;;;;;;6.21;83.16;100717.69;5036950;28;20021;-63
2022/01/31 03:58:54;;;;;;;21.92;2.95;;;;;;;6.13;84.00;100713.38;5054737;28;20108;-62
2022/01/31 04:01:19;;;;;;;16.85;2.75;;;;;;;6.18;83.03;100705.19;5054361;28;20380;-64
2022/01/31 04:03:44;;;;;;;20.30;3.72;;;;;;;6.20;83.47;100706.63;5055289;28;20021;-62
2022/01/31 04:06:09;;;;;;;13.50;3.13;;;;;;;6.19;82.15;100704.25;5054625;28;20420;-62
2022/01/31 04:08:35;;;;;;;20.23;3.05;;;;;;;6.17;82.56;100704.41;5054619;28;20053;-61
2022/01/31 04:11:00;;;;;;;24.23;3.35;;;;;;;6.20;83.33;100705.84;5054600;28;20029;-62
2022/01/31 04:13:26;;;;;;;19.40;3.40;;;;;;;6.20;82.58;100698.16;5054324;28;20463;-61
2022/01/31 04:15:53;;;;;;;15.60;2.65;;;;;;;6.26;83.64;100693.16;5054616;28;20041;-60
2022/01/31 04:18:18;;;;;;;17.63;3.00;;;;;;;6.20;82.00;100696.38;5054404;28;20033;-62
2022/01/31 04:20:43;;;;;;;15.57;2.50;;;;;;;5.97;81.24;100660.28;5054343;28;20503;-61
2022/01/31 04:23:12;;;;;;;28.55;3.17;;;;;;;6.12;80.49;100675.03;5054300;28;20104;-61
2022/01/31 04:28:16;;;;;;;20.45;2.55;;;;;;;6.20;80.99;100680.19;5054487;28;20029;-61
2022/01/31 04:30:49;;;;;;;18.55;2.70;;;;;;;6.21;80.96;100687.69;5054268;28;20021;-61
2022/01/31 04:33:14;;;;;;;18.35;2.88;;;;;;;6.22;80.17;100694.47;5054098;28;20052;-62
2022/01/31 04:35:40;;;;;;;15.60;2.92;;;;;;;6.21;79.63;100677.44;5054626;28;20357;-61
2022/01/31 04:38:05;;;;;;;19.40;2.95;;;;;;;6.15;81.30;100674.72;5054064;28;20123;-62
2022/01/31 04:40:30;;;;;;;22.63;3.75;;;;;;;6.27;81.14;100664.00;5053994;28;20043;-61
2022/01/31 04:42:56;;;;;;;26.83;3.67;;;;;;;6.17;80.79;100662.53;5053949;28;20025;-61
2022/01/31 04:45:21;;;;;;;20.23;3.55;;;;;;;6.20;81.03;100659.66;5053922;28;20091;-61
2022/01/31 04:47:46;;;;;;;17.02;3.15;;;;;;;6.25;80.74;100662.53;5036022;28;20116;-60
2022/01/31 04:50:12;;;;;;;24.48;3.15;;;;;;;6.07;82.06;100668.66;5035951;28;20025;-61
2022/01/31 04:52:41;;;;;;;21.92;3.40;;;;;;;6.00;81.93;100659.97;5053732;28;20404;-62
2022/01/31 04:55:07;;;;;;;23.35;3.22;;;;;;;6.02;82.99;100655.47;5035920;28;20082;-62
2022/01/31 04:57:32;;;;;;;15.93;3.20;;;;;;;5.99;82.82;100653.25;5035752;28;20021;-61
2022/01/31 04:59:57;;;;;;;26.38;3.35;;;;;;;5.91;84.49;100691.69;5053720;28;20024;-61
2022/01/31 05:02:24;;;;;;;15.43;2.70;;;;;;;5.42;86.91;100697.47;5053732;28;20541;-63
2022/01/31 05:04:49;;;;;;;16.10;2.17;;;;;;;5.15;88.86;100695.94;5053875;28;20063;-63
2022/01/31 05:07:15;;;;;;;12.93;2.08;;;;;;;5.02;88.12;100685.31;5036225;28;20013;-63
2022/01/31 05:09:40;;;;;;;13.25;1.92;;;;;;;5.00;88.93;100674.41;5035705;28;20021;-63
2022/01/31 05:12:06;;;;;;;15.50;2.13;;;;;;;5.03;88.90;100674.09;5054079;28;20099;-61
2022/01/31 05:14:31;;;;;;;25.10;2.17;;;;;;;4.94;89.78;100685.25;5052830;28;20056;-63
2022/01/31 05:16:57;;;;;;;12.25;1.88;;;;;;;4.97;88.75;100660.13;5053390;28;20037;-62
2022/01/31 05:19:24;;;;;;;9.77;1.70;;;;;;;5.10;89.14;100661.50;5053709;28;20029;-62
2022/01/31 05:21:49;;;;;;;13.05;1.83;;;;;;;5.07;89.97;100649.00;5036420;28;20032;-61
2022/01/31 05:24:15;;;;;;;19.80;2.75;;;;;;;5.04;89.95;100636.50;5053689;28;20029;-63
2022/01/31 05:26:40;;;;;;;19.58;2.30;;;;;;;4.98;90.32;100627.69;5053705;28;20463;-63
2022/01/31 05:29:05;;;;;;;19.70;2.90;;;;;;;5.07;90.66;100629.31;5035456;28;20029;-62
2022/01/31 05:31:31;;;;;;;22.33;3.00;;;;;;;4.97;90.89;100641.41;5053345;28;20021;-62
2022/01/31 05:33:56;;;;;;;18.02;2.38;;;;;;;4.97;91.62;100652.47;5053234;28;20077;-63
2022/01/31 05:36:22;;;;;;;20.35;2.90;;;;;;;5.02;91.08;100656.34;5053298;28;20024;-62
2022/01/31 05:38:47;;;;;;;18.13;2.70;;;;;;;4.97;92.01;100646.53;5053202;28;20036;-63
2022/01/31 05:41:18;;;;;;;19.67;3.03;;;;;;;5.04;91.47;100655.22;5053191;28;20495;-63
2022/01/31 05:43:44;;;;;;;21.60;3.33;;;;;;;5.09;92.17;100634.25;5053297;28;20095;-63
2022/01/31 05:46:10;;;;;;;20.05;3.05;;;;;;;5.09;91.36;100629.13;5053168;28;20029;-63
2022/01/31 05:48:35;;;;;;;23.63;3.42;;;;;;;5.13;91.25;100633.00;5053162;28;20023;-63
2022/01/31 05:51:07;;;;;;;21.23;3.35;;;;;;;5.17;91.77;100644.53;5053119;28;20014;-62
2022/01/31 05:53:33;;;;;;;16.23;2.45;;;;;;;5.06;91.50;100609.75;5053048;28;20033;-63
2022/01/31 05:55:58;;;;;;;23.98;4.05;;;;;;;5.22;90.69;100647.44;5053108;28;20100;-62
2022/01/31 05:58:24;;;;;;;19.98;2.72;;;;;;;5.19;90.94;100633.19;5053104;28;20082;-63
2022/01/31 06:00:49;;;;;;;23.40;3.00;;;;;;;5.26;90.74;100641.03;5035177;28;20082;-63
2022/01/31 06:03:14;;;;;;;16.48;2.88;;;;;;;5.24;90.52;100630.16;5052903;28;20028;-62
2022/01/31 06:05:40;;;;;;;22.65;2.95;;;;;;;5.32;90.28;100639.63;5052924;28;20100;-62
2022/01/31 06:08:06;;;;;;;25.90;3.28;;;;;;;5.35;90.30;100645.25;5052901;28;20028;-63
2022/01/31 06:10:33;;;;;;;17.85;2.83;;;;;;;5.28;89.84;100633.22;5035146;28;20021;-63
2022/01/31 06:12:58;;;;;;;15.98;2.50;;;;;;;5.20;90.69;100621.97;5053070;28;20021;-62
2022/01/31 06:15:23;;;;;;;18.33;2.45;;;;;;;5.26;88.21;100620.53;5052695;28;20467;-62
2022/01/31 06:17:49;;;;;;;17.45;2.40;;;;;;;5.33;89.60;100636.91;5053159;28;20060;-63
2022/01/31 06:20:14;;;;;;;22.98;3.08;;;;;;;5.18;89.99;100629.03;5052829;28;20103;-64
2022/01/31 06:22:50;;;;;;;18.58;2.70;;;;;;;5.24;89.56;100619.91;5034862;28;20024;-62
2022/01/31 06:25:17;;;;;;;18.63;2.40;;;;;;;5.26;90.13;100633.34;5054420;28;20033;-62
2022/01/31 06:27:42;;;;;;;14.68;2.08;;;;;;;5.26;89.01;100619.75;5038642;28;20020;-62
2022/01/31 06:30:08;;;;;;;16.80;2.33;;;;;;;5.28;89.13;100621.19;5056377;28;20033;-63
2022/01/31 06:32:34;;;;;;;16.75;2.97;;;;;;;5.25;88.78;100629.19;5056959;28;20029;-62
2022/01/31 06:34:59;;;;;;;19.88;2.60;;;;;;;5.26;89.45;100615.41;5056517;28;20096;-63
2022/01/31 06:37:24;;;;;;;15.15;2.10;;;;;;;5.27;89.20;100631.63;5057098;28;20444;-64
2022/01/31 06:39:50;;;;;;;23.75;2.80;;;;;;;5.19;89.75;100634.94;5038478;28;20033;-62
2022/01/31 06:42:15;;;;;;;18.48;2.30;;;;;;;5.23;89.86;100618.28;5056610;28;20036;-64
2022/01/31 06:44:41;;;;;;;11.68;2.55;;;;;;;5.16;89.58;100625.81;5056270;28;20108;-62
2022/01/31 06:47:06;;;;;;;17.50;2.70;;;;;;;5.16;90.37;100625.00;5056224;28;20035;-63
2022/01/31 06:49:32;;;;;;;18.92;3.50;;;;;;;5.16;90.48;100612.22;5038601;28;20025;-64
2022/01/31 06:51:57;;;;;;;23.92;2.97;;;;;;;5.19;90.84;100615.25;5056171;28;20491;-63
2022/01/31 06:54:22;;;;;;;21.15;3.22;;;;;;;5.12;90.14;100613.47;5056117;28;20090;-63
2022/01/31 06:56:48;;;;;;;15.40;2.53;;;;;;;5.19;89.85;100596.53;5056177;28;20017;-62
2022/01/31 06:59:13;;;;;;;18.73;2.60;;;;;;;5.16;90.38;100599.41;5056032;28;20037;-64
2022/01/31 07:01:38;;;;;;;25.38;2.75;;;;;;;5.16;90.03;100604.53;5055968;28;20025;-61
2022/01/31 07:04:04;;;;;;;18.63;2.33;;;;;;;5.16;90.61;100601.97;5056001;28;20024;-64
2022/01/31 07:06:29;;;;;;;20.80;2.67;;;;;;;5.17;90.78;100611.25;5055815;28;20082;-63
2022/01/31 07:08:55;;;;;;;16.60;2.38;;;;;;;5.15;90.22;100623.38;5055292;28;20049;-64
2022/01/31 07:11:23;;;;;;;19.70;2.90;;;;;;;5.22;90.53;100611.59;5055102;28;20025;-64
2022/01/31 07:14:00;;;;;;;23.05;3.03;;;;;;;5.22;90.57;100616.69;5037479;28;20119;-65
2022/01/31 07:16:26;;;;;;;17.98;2.58;;;;;;;5.27;90.43;100596.53;5055167;28;20419;-64
2022/01/31 07:18:55;;;;;;;27.08;3.05;;;;;;;5.17;90.86;100603.56;5055141;28;20032;-63
2022/01/31 07:21:26;;;;;;;26.05;3.35;;;;;;;5.28;90.39;100602.47;5055480;28;20104;-63
2022/01/31 07:26:28;;;;;;;23.40;3.35;;;;;;;5.27;90.54;100608.56;5055560;28;20479;-62
2022/01/31 07:28:54;;;;;;;22.17;3.30;;;;;;;5.25;90.40;100611.25;5055333;28;20031;-62
2022/01/31 07:31:19;;;;;;;28.73;3.60;;;;;;;5.34;89.35;100617.22;5055565;28;20068;-62
2022/01/31 07:33:44;;;;;;;23.10;3.63;;;;;;;5.37;90.57;100607.44;5055345;28;20115;-63
2022/01/31 07:36:10;;;;;;;23.90;3.55;;;;;;;5.42;89.79;100617.25;5055212;28;20482;-61
2022/01/31 07:38:35;;;;;;;26.42;4.05;;;;;;;5.41;87.90;100613.88;5055356;28;20099;-61
2022/01/31 07:41:01;;;;;;;22.40;3.40;;;;;;;5.43;87.62;100639.34;5055517;28;20112;-63
2022/01/31 07:43:27;;;;;;;17.25;2.40;;;;;;;5.47;87.38;100598.81;5054919;28;20017;-62
2022/01/31 07:45:53;;;;;;;22.95;3.33;;;;;;;5.52;87.56;100609.41;5055145;28;20024;-62
2022/01/31 07:48:18;;;;;;;28.20;3.83;;;;;;;5.52;88.37;100615.31;5055048;28;20021;-65
2022/01/31 07:50:43;;;;;;;37.13;3.00;;;;;;;5.47;87.51;100609.88;5037039;28;20025;-61
2022/01/31 07:53:09;;;;;;;27.40;3.72;;;;;;;5.48;87.89;100613.25;5054820;28;20020;-62
2022/01/31 07:55:35;;;;;;;20.45;2.97;;;;;;;5.47;89.12;100643.19;5054882;28;20083;-63
2022/01/31 07:58:02;;;;;;;26.77;3.60;;;;;;;5.45;88.98;100649.44;5054849;28;20522;-62
2022/01/31 08:00:29;;;;;;;22.02;3.50;;;;;;;5.43;88.85;100637.56;5037116;28;20103;-64
2022/01/31 08:02:56;;;;;;;20.02;3.03;;;;;;;5.51;88.03;100633.44;5035489;28;20021;-64
2022/01/31 08:05:21;;;;;;;21.10;2.90;;;;;;;5.46;87.79;100633.88;5054070;28;20070;-64
2022/01/31 08:07:48;;;;;;;25.58;4.00;;;;;;;5.53;87.74;100652.81;5055063;28;20464;-63
2022/01/31 08:10:15;;;;;;;29.48;4.22;;;;;;;5.63;87.40;100648.34;5054785;28;20082;-65
2022/01/31 08:12:42;;;;;;;23.48;3.42;;;;;;;5.52;87.46;100669.16;5036653;28;20071;-64
2022/01/31 08:15:09;;;;;;;25.52;3.42;;;;;;;5.69;86.80;100630.72;5054417;28;20025;-63
2022/01/31 08:17:35;;;;;;;29.92;4.18;;;;;;;5.50;85.98;100637.75;5054094;28;20479;-64
2022/01/31 08:20:01;;;;;;;32.80;3.85;;;;;;;5.55;85.72;100632.16;5037071;28;20036;-64
2022/01/31 08:22:26;;;;;;;28.55;3.95;;;;;;;5.45;85.85;100650.25;5036536;28;20021;-62
2022/01/31 08:24:51;;;;;;;33.22;3.60;;;;;;;5.57;86.35;100666.13;5037294;28;20029;-63
2022/01/31 08:27:17;;;;;;;21.98;3.38;;;;;;;5.50;87.86;100652.34;5036372;28;20020;-63
2022/01/31 08:29:42;;;;;;;25.23;3.47;;;;;;;5.49;87.52;100677.16;5054203;28;20029;-61
2022/01/31 08:32:17;;;;;;;26.95;3.88;;;;;;;5.51;87.73;100674.44;5054137;28;20061;-65
2022/01/31 08:37:27;;;;;;;24.83;4.13;;;;;;;5.56;87.38;100665.31;5054307;28;20049;-62
2022/01/31 08:39:53;;;;;;;33.42;4.47;;;;;;;5.51;87.14;100666.75;5036581;28;20541;-62
2022/01/31 08:42:19;;;;;;;34.20;4.22;;;;;;;5.49;88.03;100673.78;5054176;28;20025;-62
2022/01/31 08:44:46;;;;;;;28.67;3.80;;;;;;;5.45;88.61;100685.31;5054190;28;20096;-64
2022/01/31 08:47:11;;;;;;;24.77;3.75;;;;;;;5.33;88.22;100693.28;5053867;28;20078;-62
2022/01/31 08:49:37;;;;;;;33.92;4.97;;;;;;;5.38;89.32;100691.06;5052904;28;20021;-63
2022/01/31 08:52:05;;;;;;;33.55;4.10;;;;;;;5.42;88.89;100702.59;5054083;28;20021;-62
2022/01/31 08:54:31;;;;;;;26.55;3.42;;;;;;;5.55;87.96;100691.09;5053129;28;20096;-62
2022/01/31 08:56:57;;;;;;;29.10;3.88;;;;;;;5.54;87.03;100687.75;5036014;28;20032;-61
2022/01/31 08:59:25;;;;;;;31.85;4.93;;;;;;;5.60;85.46;100706.81;5035635;28;20017;-61
2022/01/31 09:02:03;;;;;;;24.00;4.35;;;;;;;5.60;85.78;100701.69;5053875;28;20377;-63
2022/01/31 09:04:47;;;;;;;27.80;3.88;;;;;;;5.61;84.79;100691.31;5035656;28;20013;-64
2022/01/31 09:07:13;;;;;;;20.50;4.32;;;;;;;5.64;85.20;100711.50;5034754;28;20029;-63
2022/01/31 09:09:38;;;;;;;26.60;4.07;;;;;;;5.69;85.73;100723.03;5052189;28;20115;-61
2022/01/31 09:12:06;;;;;;;26.45;3.80;;;;;;;5.61;86.72;100709.25;5052584;28;20071;-63
2022/01/31 09:14:32;;;;;;;31.27;4.32;;;;;;;5.52;86.34;100711.94;5034327;28;20466;-64
2022/01/31 09:16:57;;;;;;;32.40;4.05;;;;;;;5.58;87.58;100711.31;5052055;28;20049;-62
2022/01/31 09:19:23;;;;;;;28.65;3.80;;;;;;;5.47;87.36;100703.88;5033270;28;20028;-62
2022/01/31 09:21:49;;;;;;;30.00;3.88;;;;;;;5.41;86.62;100729.19;5051607;28;20088;-61
2022/01/31 09:24:14;;;;;;;34.08;4.15;;;;;;;5.44;87.54;100730.66;5034849;28;20464;-61
2022/01/31 09:26:39;;;;;;;30.52;4.38;;;;;;;5.34;87.87;100724.84;5036129;28;20028;-63
2022/01/31 09:29:04;;;;;;;34.85;4.90;;;;;;;5.29;87.64;100724.50;5053305;28;20021;-63
2022/01/31 09:31:30;;;;;;;30.40;4.80;;;;;;;5.32;88.59;100752.38;5035325;28;20153;-63
2022/01/31 09:33:55;;;;;;;45.55;5.05;;;;;;;5.28;89.10;100754.44;5053262;28;20077;-64
2022/01/31 09:36:22;;;;;;;31.23;5.63;;;;;;;5.28;89.02;100753.66;5052744;28;20036;-62
2022/01/31 09:38:48;;;;;;;38.58;5.35;;;;;;;5.24;89.32;100754.91;5053038;28;20054;-62
2022/01/31 09:41:17;;;;;;;39.38;5.78;;;;;;;5.33;88.98;100764.25;5053117;28;20203;-63
2022/01/31 09:48:44;;;;;;;44.50;6.03;;;;;;;5.55;86.20;100783.38;5054107;28;20060;-61
2022/01/31 09:51:13;;;;;;;38.42;5.70;;;;;;;5.57;86.73;100809.69;5052881;28;20484;-61
2022/01/31 09:53:43;;;;;;;37.55;5.30;;;;;;;5.60;86.15;100796.56;5052222;28;20104;-63
2022/01/31 09:56:11;;;;;;;42.83;5.53;;;;;;;5.55;85.53;100789.34;5035847;28;20464;-61
2022/01/31 09:58:38;;;;;;;37.65;5.47;;;;;;;5.61;87.41;100836.59;5034706;28;20029;-62
2022/01/31 10:01:11;;;;;;;40.30;4.85;;;;;;;5.54;84.76;100822.81;5055106;28;20044;-62
2022/01/31 10:03:56;;;;;;;43.03;5.40;;;;;;;5.59;86.20;100810.34;5056765;28;20017;-63
2022/01/31 10:06:25;;;;;;;36.85;5.78;;;;;;;5.59;85.53;100830.84;5056081;28;20033;-62
2022/01/31 10:09:24;;;;;;;45.30;6.47;;;;;;;5.56;85.72;100837.09;5056652;28;20028;-62
2022/01/31 10:11:51;;;;;;;32.85;4.20;;;;;;;5.63;84.80;100830.38;5057516;28;20029;-63
2022/01/31 10:17:03;;;;;;;40.60;5.22;;;;;;;5.70;85.53;100863.91;5056633;28;20063;-65
2022/01/31 10:19:29;;;;;;;42.35;4.38;;;;;;;5.63;85.48;100862.91;5056700;28;20425;-63
2022/01/31 10:22:03;;;;;;;26.10;4.25;;;;;;;5.53;85.70;100857.09;5056644;28;20100;-62
2022/01/31 10:24:31;;;;;;;29.65;4.90;;;;;;;5.55;86.10;100907.25;5038814;28;20029;-62
2022/01/31 10:27:05;;;;;;;34.67;3.92;;;;;;;5.69;85.19;100876.88;5056586;28;20017;-63
2022/01/31 10:29:30;;;;;;;34.88;4.50;;;;;;;5.62;85.13;100863.88;5056522;28;20493;-63
2022/01/31 10:32:07;;;;;;;23.13;4.25;;;;;;;5.78;85.02;100881.91;5056381;28;20053;-62
2022/01/31 10:34:45;;;;;;;37.67;4.30;;;;;;;5.66;85.20;100886.47;5038012;28;20032;-63
2022/01/31 10:37:13;;;;;;;33.17;4.07;;;;;;;5.57;86.71;100882.25;5037927;28;20025;-64
2022/01/31 10:50:46;;;;;;;33.75;4.68;;;;;;;5.69;87.35;100880.25;5057182;28;20063;-62
2022/01/31 10:53:12;;;;;;;29.48;4.43;;;;;;;5.54;88.06;100887.69;5056107;28;20380;-62
2022/01/31 10:55:38;;;;;;;30.88;4.43;;;;;;;5.54;88.48;100886.91;5056160;28;20021;-62
2022/01/31 10:58:06;;;;;;;30.20;4.50;;;;;;;5.47;88.93;100899.53;5056344;28;20468;-63
2022/01/31 11:00:36;;;;;;;38.33;4.85;;;;;;;5.56;89.06;100893.47;5055604;28;20025;-64
2022/01/31 11:03:25;;;;;;;30.55;4.88;;;;;;;5.69;87.85;100899.97;5056276;28;20029;-62
2022/01/31 11:05:51;;;;;;;36.33;5.22;;;;;;;5.66;88.60;100919.00;5046975;28;20091;-63
2022/01/31 11:08:17;;;;;;;34.17;5.13;;;;;;;5.59;89.44;100931.63;5038165;28;20459;-63
2022/01/31 11:10:43;;;;;;;35.97;5.05;;;;;;;5.53;89.86;100903.25;5055562;28;20411;-63
2022/01/31 11:13:09;;;;;;;51.15;5.25;;;;;;;5.43;90.66;100909.25;5037402;28;20029;-63
2022/01/31 11:15:37;;;;;;;31.17;5.00;;;;;;;5.48;90.35;100916.50;5034414;28;20041;-64
2022/01/31 11:18:02;;;;;;;40.78;5.43;;;;;;;5.47;89.65;100917.47;5034443;28;20076;-61
2022/01/31 11:20:28;;;;;;;36.63;5.40;;;;;;;5.49;90.29;100932.69;5034376;28;20025;-63
2022/01/31 11:22:58;;;;;;;35.58;4.85;;;;;;;5.37;90.49;100939.81;5035615;28;20018;-63
2022/01/31 11:25:28;;;;;;;35.80;5.50;;;;;;;5.36;90.04;100941.56;5035321;28;20036;-63
2022/01/31 11:28:01;;;;;;;33.72;5.47;;;;;;;5.40;90.48;100950.56;5034195;28;20601;-63
2022/01/31 11:30:26;;;;;;;;;;;;;;;5.45;90.41;100936.50;5036060;28;20037;-62
2022/01/31 11:32:53;;;;;;;33.33;5.20;;;;;;;5.47;89.76;100945.66;5035687;28;20402;-63
2022/01/31 11:35:19;;;;;;;39.92;4.40;;;;;;;5.56;90.52;100969.59;5033999;28;20396;-62
2022/01/31 11:37:44;;;;;;;30.65;4.43;;;;;;;5.56;89.81;100955.00;5035432;28;20100;-61
2022/01/31 11:40:13;;;;;;;32.80;4.35;;;;;;;5.56;90.40;100977.28;5035442;28;20480;-62
2022/01/31 11:42:46;;;;;;;36.72;5.05;;;;;;;5.59;90.83;100949.56;5035235;28;20025;-62
2022/01/31 11:45:18;;;;;;;40.92;5.93;;;;;;;5.54;90.66;100969.72;5033110;28;20025;-63
2022/01/31 11:47:48;;;;;;;35.72;5.30;;;;;;;5.57;91.08;100966.06;5035154;28;20029;-61
2022/01/31 11:50:14;;;;;;;42.30;5.55;;;;;;;5.54;91.77;100964.59;5033963;28;20036;-64
2022/01/31 11:52:47;;;;;;;44.30;5.68;;;;;;;5.61;91.30;100969.91;5034559;28;20112;-63